sensor_id;sensor_type;location;lat;lon;timestamp;temperature;humidity
1413;DHT22;701;52.526;13.408;2023-03-21T00:00:37;11.10;18.70
1413;DHT22;701;52.526;13.408;2023-03-21T00:03:04;11.00;19.00
1413;DHT22;701;52.526;13.408;2023-03-21T00:05:31;11.00;19.40
1413;DHT22;701;52.526;13.408;2023-03-21T00:07:56;10.90;19.60
1413;DHT22;701;52.526;13.408;2023-03-21T00:10:22;10.90;19.80
1413;DHT22;701;52.526;13.408;2023-03-21T00:12:48;10.90;20.00
1413;DHT22;701;52.526;13.408;2023-03-21T00:15:20;10.90;20.10
1413;DHT22;701;52.526;13.408;2023-03-21T00:17:46;10.90;20.20
1413;DHT22;701;52.526;13.408;2023-03-21T00:20:15;10.90;20.20
1413;DHT22;701;52.526;13.408;2023-03-21T00:22:41;10.90;20.30
1413;DHT22;701;52.526;13.408;2023-03-21T00:25:08;10.80;20.30
1413;DHT22;701;52.526;13.408;2023-03-21T00:27:35;10.80;20.40
1413;DHT22;701;52.526;13.408;2023-03-21T00:30:02;10.80;20.40
1413;DHT22;701;52.526;13.408;2023-03-21T00:32:37;10.80;20.40
1413;DHT22;701;52.526;13.408;2023-03-21T00:35:02;10.80;20.30
1413;DHT22;701;52.526;13.408;2023-03-21T00:37:28;10.80;20.30
1413;DHT22;701;52.526;13.408;2023-03-21T00:39:54;10.80;20.30
1413;DHT22;701;52.526;13.408;2023-03-21T00:42:20;10.80;20.20
1413;DHT22;701;52.526;13.408;2023-03-21T00:44:45;10.80;20.10
1413;DHT22;701;52.526;13.408;2023-03-21T00:47:12;10.80;20.10
1413;DHT22;701;52.526;13.408;2023-03-21T00:49:38;10.80;19.90
1413;DHT22;701;52.526;13.408;2023-03-21T00:52:05;10.90;20.00
1413;DHT22;701;52.526;13.408;2023-03-21T00:54:32;10.90;19.90
1413;DHT22;701;52.526;13.408;2023-03-21T00:56:58;10.90;19.90
1413;DHT22;701;52.526;13.408;2023-03-21T00:59:24;10.90;19.80
1413;DHT22;701;52.526;13.408;2023-03-21T01:01:50;10.90;19.90
1413;DHT22;701;52.526;13.408;2023-03-21T01:04:18;10.90;20.20
1413;DHT22;701;52.526;13.408;2023-03-21T01:06:46;10.90;20.30
1413;DHT22;701;52.526;13.408;2023-03-21T01:09:17;10.90;20.60
1413;DHT22;701;52.526;13.408;2023-03-21T01:11:43;10.90;20.80
1413;DHT22;701;52.526;13.408;2023-03-21T01:14:14;10.90;21.00
1413;DHT22;701;52.526;13.408;2023-03-21T01:16:41;10.90;21.10
1413;DHT22;701;52.526;13.408;2023-03-21T01:19:09;10.90;21.10
1413;DHT22;701;52.526;13.408;2023-03-21T01:21:35;10.90;21.10
1413;DHT22;701;52.526;13.408;2023-03-21T01:24:01;10.90;21.20
1413;DHT22;701;52.526;13.408;2023-03-21T01:26:28;10.90;21.50
1413;DHT22;701;52.526;13.408;2023-03-21T01:28:54;10.90;21.60
1413;DHT22;701;52.526;13.408;2023-03-21T01:31:20;10.80;21.40
1413;DHT22;701;52.526;13.408;2023-03-21T01:33:45;10.70;21.50
1413;DHT22;701;52.526;13.408;2023-03-21T01:36:20;10.70;21.50
1413;DHT22;701;52.526;13.408;2023-03-21T01:38:48;10.70;21.50
1413;DHT22;701;52.526;13.408;2023-03-21T01:41:20;10.70;21.50
1413;DHT22;701;52.526;13.408;2023-03-21T01:43:49;10.70;21.80
1413;DHT22;701;52.526;13.408;2023-03-21T01:49:34;10.70;21.70
1413;DHT22;701;52.526;13.408;2023-03-21T01:52:27;10.70;21.90
1413;DHT22;701;52.526;13.408;2023-03-21T01:54:55;10.70;21.80
1413;DHT22;701;52.526;13.408;2023-03-21T01:57:26;10.70;21.70
1413;DHT22;701;52.526;13.408;2023-03-21T01:59:58;10.70;21.80
1413;DHT22;701;52.526;13.408;2023-03-21T02:02:52;10.70;21.80
1413;DHT22;701;52.526;13.408;2023-03-21T02:08:22;10.60;21.80
1413;DHT22;701;52.526;13.408;2023-03-21T02:10:50;10.60;21.80
1413;DHT22;701;52.526;13.408;2023-03-21T02:13:27;10.60;21.90
1413;DHT22;701;52.526;13.408;2023-03-21T02:16:08;10.60;22.00
1413;DHT22;701;52.526;13.408;2023-03-21T02:22:24;10.50;22.30
1413;DHT22;701;52.526;13.408;2023-03-21T02:27:42;10.50;22.40
1413;DHT22;701;52.526;13.408;2023-03-21T02:38:42;10.50;22.80
1413;DHT22;701;52.526;13.408;2023-03-21T02:44:06;10.40;23.30
1413;DHT22;701;52.526;13.408;2023-03-21T02:49:36;10.30;23.40
1413;DHT22;701;52.526;13.408;2023-03-21T02:52:03;10.40;23.60
1413;DHT22;701;52.526;13.408;2023-03-21T02:54:31;10.30;23.50
1413;DHT22;701;52.526;13.408;2023-03-21T02:56:58;10.30;23.50
1413;DHT22;701;52.526;13.408;2023-03-21T02:59:26;10.30;23.70
1413;DHT22;701;52.526;13.408;2023-03-21T03:01:55;10.30;23.80
1413;DHT22;701;52.526;13.408;2023-03-21T03:04:25;10.30;24.10
1413;DHT22;701;52.526;13.408;2023-03-21T03:15:46;10.30;24.20
1413;DHT22;701;52.526;13.408;2023-03-21T03:18:46;10.30;24.20
1413;DHT22;701;52.526;13.408;2023-03-21T03:21:31;10.30;24.20
1413;DHT22;701;52.526;13.408;2023-03-21T03:24:02;10.30;24.30
1413;DHT22;701;52.526;13.408;2023-03-21T03:26:32;10.20;24.30
1413;DHT22;701;52.526;13.408;2023-03-21T03:29:06;10.20;24.90
1413;DHT22;701;52.526;13.408;2023-03-21T03:31:40;10.20;24.80
1413;DHT22;701;52.526;13.408;2023-03-21T03:34:11;10.20;25.10
1413;DHT22;701;52.526;13.408;2023-03-21T03:36:44;10.20;25.10
1413;DHT22;701;52.526;13.408;2023-03-21T03:39:17;10.20;25.50
1413;DHT22;701;52.526;13.408;2023-03-21T03:42:07;10.10;25.50
1413;DHT22;701;52.526;13.408;2023-03-21T03:44:39;10.10;25.90
1413;DHT22;701;52.526;13.408;2023-03-21T03:47:10;10.10;25.80
1413;DHT22;701;52.526;13.408;2023-03-21T03:50:00;10.10;25.90
1413;DHT22;701;52.526;13.408;2023-03-21T03:52:32;10.10;25.90
1413;DHT22;701;52.526;13.408;2023-03-21T03:55:10;10.10;26.20
1413;DHT22;701;52.526;13.408;2023-03-21T03:57:39;10.10;26.30
1413;DHT22;701;52.526;13.408;2023-03-21T04:00:06;10.10;26.50
1413;DHT22;701;52.526;13.408;2023-03-21T04:02:50;10.10;26.70
1413;DHT22;701;52.526;13.408;2023-03-21T04:05:19;10.10;27.40
1413;DHT22;701;52.526;13.408;2023-03-21T04:07:47;10.10;27.00
1413;DHT22;701;52.526;13.408;2023-03-21T04:10:16;10.10;27.00
1413;DHT22;701;52.526;13.408;2023-03-21T04:12:42;10.10;27.20
1413;DHT22;701;52.526;13.408;2023-03-21T04:15:18;10.10;27.20
1413;DHT22;701;52.526;13.408;2023-03-21T04:17:49;10.10;27.30
1413;DHT22;701;52.526;13.408;2023-03-21T04:20:15;10.10;27.10
1413;DHT22;701;52.526;13.408;2023-03-21T04:22:41;10.10;27.20
1413;DHT22;701;52.526;13.408;2023-03-21T04:25:07;10.10;27.30
1413;DHT22;701;52.526;13.408;2023-03-21T04:27:34;10.10;27.20
1413;DHT22;701;52.526;13.408;2023-03-21T04:30:19;10.10;27.20
1413;DHT22;701;52.526;13.408;2023-03-21T04:32:50;10.10;27.20
1413;DHT22;701;52.526;13.408;2023-03-21T04:35:19;10.10;27.30
1413;DHT22;701;52.526;13.408;2023-03-21T04:37:45;10.10;27.20
1413;DHT22;701;52.526;13.408;2023-03-21T04:40:14;10.10;27.40
1413;DHT22;701;52.526;13.408;2023-03-21T04:42:43;10.20;27.70
1413;DHT22;701;52.526;13.408;2023-03-21T04:45:11;10.10;27.60
1413;DHT22;701;52.526;13.408;2023-03-21T04:47:38;10.10;27.60
1413;DHT22;701;52.526;13.408;2023-03-21T04:50:04;10.20;27.70
1413;DHT22;701;52.526;13.408;2023-03-21T04:52:30;10.20;27.70
1413;DHT22;701;52.526;13.408;2023-03-21T04:54:55;10.10;27.60
1413;DHT22;701;52.526;13.408;2023-03-21T04:57:22;10.20;27.70
1413;DHT22;701;52.526;13.408;2023-03-21T04:59:48;10.20;27.70
1413;DHT22;701;52.526;13.408;2023-03-21T05:02:14;10.20;27.70
1413;DHT22;701;52.526;13.408;2023-03-21T05:04:40;10.20;28.00
1413;DHT22;701;52.526;13.408;2023-03-21T05:07:07;10.20;28.10
1413;DHT22;701;52.526;13.408;2023-03-21T05:09:33;10.20;28.20
1413;DHT22;701;52.526;13.408;2023-03-21T05:11:59;10.10;28.20
1413;DHT22;701;52.526;13.408;2023-03-21T05:14:26;10.10;28.20
1413;DHT22;701;52.526;13.408;2023-03-21T05:16:53;10.10;28.30
1413;DHT22;701;52.526;13.408;2023-03-21T05:19:23;10.10;28.50
1413;DHT22;701;52.526;13.408;2023-03-21T05:21:51;10.10;28.50
1413;DHT22;701;52.526;13.408;2023-03-21T05:24:24;10.20;28.70
1413;DHT22;701;52.526;13.408;2023-03-21T05:26:51;10.10;28.70
1413;DHT22;701;52.526;13.408;2023-03-21T05:29:20;10.20;29.20
1413;DHT22;701;52.526;13.408;2023-03-21T05:31:56;10.20;29.40
1413;DHT22;701;52.526;13.408;2023-03-21T05:34:23;10.20;29.40
1413;DHT22;701;52.526;13.408;2023-03-21T05:36:50;10.20;29.50
1413;DHT22;701;52.526;13.408;2023-03-21T05:39:19;10.20;29.70
1413;DHT22;701;52.526;13.408;2023-03-21T05:42:05;10.20;29.60
1413;DHT22;701;52.526;13.408;2023-03-21T05:44:31;10.20;29.80
1413;DHT22;701;52.526;13.408;2023-03-21T05:47:03;10.30;30.00
1413;DHT22;701;52.526;13.408;2023-03-21T05:49:37;10.30;30.00
1413;DHT22;701;52.526;13.408;2023-03-21T05:52:04;10.30;30.10
1413;DHT22;701;52.526;13.408;2023-03-21T05:54:30;10.30;30.20
1413;DHT22;701;52.526;13.408;2023-03-21T05:56:56;10.30;30.10
1413;DHT22;701;52.526;13.408;2023-03-21T05:59:43;10.40;30.10
1413;DHT22;701;52.526;13.408;2023-03-21T06:02:09;10.40;30.20
1413;DHT22;701;52.526;13.408;2023-03-21T06:04:36;10.50;30.00
1413;DHT22;701;52.526;13.408;2023-03-21T06:07:03;10.50;30.00
1413;DHT22;701;52.526;13.408;2023-03-21T06:09:29;10.60;30.00
1413;DHT22;701;52.526;13.408;2023-03-21T06:11:58;10.60;29.90
1413;DHT22;701;52.526;13.408;2023-03-21T06:14:24;10.60;29.80
1413;DHT22;701;52.526;13.408;2023-03-21T06:17:08;10.60;29.70
1413;DHT22;701;52.526;13.408;2023-03-21T06:19:40;10.60;29.60
1413;DHT22;701;52.526;13.408;2023-03-21T06:22:11;10.60;29.60
1413;DHT22;701;52.526;13.408;2023-03-21T06:24:39;10.70;29.60
1413;DHT22;701;52.526;13.408;2023-03-21T06:27:04;10.70;29.50
1413;DHT22;701;52.526;13.408;2023-03-21T06:29:42;10.70;29.50
1413;DHT22;701;52.526;13.408;2023-03-21T06:32:08;10.70;29.40
1413;DHT22;701;52.526;13.408;2023-03-21T06:34:34;10.80;29.40
1413;DHT22;701;52.526;13.408;2023-03-21T06:37:00;10.80;29.30
1413;DHT22;701;52.526;13.408;2023-03-21T06:39:30;10.80;29.20
1413;DHT22;701;52.526;13.408;2023-03-21T06:41:57;10.90;29.20
1413;DHT22;701;52.526;13.408;2023-03-21T06:44:23;10.90;29.10
1413;DHT22;701;52.526;13.408;2023-03-21T06:46:57;11.00;28.90
1413;DHT22;701;52.526;13.408;2023-03-21T06:49:23;11.00;28.80
1413;DHT22;701;52.526;13.408;2023-03-21T06:51:49;11.00;29.10
1413;DHT22;701;52.526;13.408;2023-03-21T06:54:18;11.00;28.70
1413;DHT22;701;52.526;13.408;2023-03-21T06:56:57;11.10;28.70
1413;DHT22;701;52.526;13.408;2023-03-21T06:59:28;11.10;28.40
1413;DHT22;701;52.526;13.408;2023-03-21T07:01:58;11.10;28.40
1413;DHT22;701;52.526;13.408;2023-03-21T07:04:24;11.20;28.30
1413;DHT22;701;52.526;13.408;2023-03-21T07:06:52;11.20;28.30
1413;DHT22;701;52.526;13.408;2023-03-21T07:09:20;11.20;28.30
1413;DHT22;701;52.526;13.408;2023-03-21T07:11:50;11.30;28.40
1413;DHT22;701;52.526;13.408;2023-03-21T07:14:20;11.30;28.40
1413;DHT22;701;52.526;13.408;2023-03-21T07:16:46;11.30;28.40
1413;DHT22;701;52.526;13.408;2023-03-21T07:19:12;11.30;28.40
1413;DHT22;701;52.526;13.408;2023-03-21T07:21:39;11.30;28.60
1413;DHT22;701;52.526;13.408;2023-03-21T07:24:05;11.30;29.00
1413;DHT22;701;52.526;13.408;2023-03-21T07:26:31;11.40;28.80
1413;DHT22;701;52.526;13.408;2023-03-21T07:28:57;11.40;28.70
1413;DHT22;701;52.526;13.408;2023-03-21T07:31:23;11.40;28.70
1413;DHT22;701;52.526;13.408;2023-03-21T07:33:54;11.40;28.70
1413;DHT22;701;52.526;13.408;2023-03-21T07:36:21;11.40;29.00
1413;DHT22;701;52.526;13.408;2023-03-21T07:38:47;11.50;28.90
1413;DHT22;701;52.526;13.408;2023-03-21T07:41:17;11.50;29.20
1413;DHT22;701;52.526;13.408;2023-03-21T07:43:43;11.50;29.10
1413;DHT22;701;52.526;13.408;2023-03-21T07:46:09;11.50;29.40
1413;DHT22;701;52.526;13.408;2023-03-21T07:48:35;11.50;29.20
1413;DHT22;701;52.526;13.408;2023-03-21T07:51:02;11.50;29.30
1413;DHT22;701;52.526;13.408;2023-03-21T07:53:28;11.50;29.30
1413;DHT22;701;52.526;13.408;2023-03-21T07:55:54;11.50;29.60
1413;DHT22;701;52.526;13.408;2023-03-21T07:58:24;11.50;29.50
1413;DHT22;701;52.526;13.408;2023-03-21T08:00:51;11.50;29.50
1413;DHT22;701;52.526;13.408;2023-03-21T08:03:18;11.60;29.50
1413;DHT22;701;52.526;13.408;2023-03-21T08:05:44;11.60;29.40
1413;DHT22;701;52.526;13.408;2023-03-21T08:08:11;11.50;29.40
1413;DHT22;701;52.526;13.408;2023-03-21T08:10:36;11.60;29.50
1413;DHT22;701;52.526;13.408;2023-03-21T08:13:02;11.60;29.60
1413;DHT22;701;52.526;13.408;2023-03-21T08:15:28;11.60;29.60
1413;DHT22;701;52.526;13.408;2023-03-21T08:17:54;11.60;29.60
1413;DHT22;701;52.526;13.408;2023-03-21T08:20:21;11.70;29.50
1413;DHT22;701;52.526;13.408;2023-03-21T08:22:48;11.70;29.50
1413;DHT22;701;52.526;13.408;2023-03-21T08:25:15;11.80;29.30
1413;DHT22;701;52.526;13.408;2023-03-21T08:27:43;11.90;29.30
1413;DHT22;701;52.526;13.408;2023-03-21T08:30:12;12.00;29.20
1413;DHT22;701;52.526;13.408;2023-03-21T08:32:39;12.00;28.90
1413;DHT22;701;52.526;13.408;2023-03-21T08:35:10;12.10;29.00
1413;DHT22;701;52.526;13.408;2023-03-21T08:37:40;12.10;29.00
1413;DHT22;701;52.526;13.408;2023-03-21T08:40:14;12.10;29.00
1413;DHT22;701;52.526;13.408;2023-03-21T08:42:41;12.10;29.00
1413;DHT22;701;52.526;13.408;2023-03-21T08:45:08;12.20;29.60
1413;DHT22;701;52.526;13.408;2023-03-21T08:47:34;12.30;29.10
1413;DHT22;701;52.526;13.408;2023-03-21T08:50:00;12.30;29.10
1413;DHT22;701;52.526;13.408;2023-03-21T08:52:26;12.40;29.20
1413;DHT22;701;52.526;13.408;2023-03-21T08:54:52;12.40;29.20
1413;DHT22;701;52.526;13.408;2023-03-21T08:57:18;12.50;29.20
1413;DHT22;701;52.526;13.408;2023-03-21T08:59:44;12.50;29.30
1413;DHT22;701;52.526;13.408;2023-03-21T09:02:13;12.50;29.30
1413;DHT22;701;52.526;13.408;2023-03-21T09:04:41;12.50;29.20
1413;DHT22;701;52.526;13.408;2023-03-21T09:07:08;12.60;29.20
1413;DHT22;701;52.526;13.408;2023-03-21T09:09:35;12.60;29.10
1413;DHT22;701;52.526;13.408;2023-03-21T09:12:02;12.60;28.70
1413;DHT22;701;52.526;13.408;2023-03-21T09:14:28;12.60;28.70
1413;DHT22;701;52.526;13.408;2023-03-21T09:16:54;12.60;28.60
1413;DHT22;701;52.526;13.408;2023-03-21T09:19:20;12.60;28.70
1413;DHT22;701;52.526;13.408;2023-03-21T09:21:47;12.70;28.60
1413;DHT22;701;52.526;13.408;2023-03-21T09:24:13;12.70;28.60
1413;DHT22;701;52.526;13.408;2023-03-21T09:26:40;12.80;28.50
1413;DHT22;701;52.526;13.408;2023-03-21T09:29:06;12.80;28.20
1413;DHT22;701;52.526;13.408;2023-03-21T09:31:32;12.90;28.30
1413;DHT22;701;52.526;13.408;2023-03-21T09:33:58;12.90;28.00
1413;DHT22;701;52.526;13.408;2023-03-21T09:36:24;12.90;28.00
1413;DHT22;701;52.526;13.408;2023-03-21T09:38:52;13.00;27.90
1413;DHT22;701;52.526;13.408;2023-03-21T09:49:22;13.10;27.10
1413;DHT22;701;52.526;13.408;2023-03-21T09:51:51;13.20;27.10
1413;DHT22;701;52.526;13.408;2023-03-21T09:54:25;13.30;27.00
1413;DHT22;701;52.526;13.408;2023-03-21T09:56:54;13.30;26.70
1413;DHT22;701;52.526;13.408;2023-03-21T09:59:31;13.40;26.40
1413;DHT22;701;52.526;13.408;2023-03-21T10:02:00;13.40;26.40
1413;DHT22;701;52.526;13.408;2023-03-21T10:04:27;13.50;26.50
1413;DHT22;701;52.526;13.408;2023-03-21T10:06:57;13.50;26.40
1413;DHT22;701;52.526;13.408;2023-03-21T10:09:25;13.60;26.40
1413;DHT22;701;52.526;13.408;2023-03-21T10:12:11;13.60;26.10
1413;DHT22;701;52.526;13.408;2023-03-21T10:14:49;13.70;25.20
1413;DHT22;701;52.526;13.408;2023-03-21T10:19:48;13.60;25.30
1413;DHT22;701;52.526;13.408;2023-03-21T10:22:16;13.70;25.10
1413;DHT22;701;52.526;13.408;2023-03-21T10:24:42;13.70;24.90
1413;DHT22;701;52.526;13.408;2023-03-21T10:27:09;13.70;25.30
1413;DHT22;701;52.526;13.408;2023-03-21T10:29:42;13.80;24.80
1413;DHT22;701;52.526;13.408;2023-03-21T10:32:12;13.90;24.60
1413;DHT22;701;52.526;13.408;2023-03-21T10:34:44;14.00;24.40
1413;DHT22;701;52.526;13.408;2023-03-21T10:37:11;14.10;24.10
1413;DHT22;701;52.526;13.408;2023-03-21T10:39:40;14.20;23.90
1413;DHT22;701;52.526;13.408;2023-03-21T10:42:18;14.30;23.40
1413;DHT22;701;52.526;13.408;2023-03-21T10:44:47;14.50;23.50
1413;DHT22;701;52.526;13.408;2023-03-21T10:47:30;14.70;23.10
1413;DHT22;701;52.526;13.408;2023-03-21T10:50:10;14.90;21.70
1413;DHT22;701;52.526;13.408;2023-03-21T10:52:45;15.10;20.80
1413;DHT22;701;52.526;13.408;2023-03-21T10:57:47;15.30;20.60
1413;DHT22;701;52.526;13.408;2023-03-21T11:00:19;15.20;20.30
1413;DHT22;701;52.526;13.408;2023-03-21T11:02:50;15.20;20.30
1413;DHT22;701;52.526;13.408;2023-03-21T11:05:24;15.20;20.30
1413;DHT22;701;52.526;13.408;2023-03-21T11:08:05;15.20;20.30
1413;DHT22;701;52.526;13.408;2023-03-21T11:10:34;15.10;20.30
1413;DHT22;701;52.526;13.408;2023-03-21T11:13:06;15.00;20.20
1413;DHT22;701;52.526;13.408;2023-03-21T11:15:41;14.80;20.40
1413;DHT22;701;52.526;13.408;2023-03-21T11:18:22;14.70;20.70
1413;DHT22;701;52.526;13.408;2023-03-21T11:20:57;14.60;21.00
1413;DHT22;701;52.526;13.408;2023-03-21T11:23:26;14.50;21.30
1413;DHT22;701;52.526;13.408;2023-03-21T11:25:53;14.50;21.50
1413;DHT22;701;52.526;13.408;2023-03-21T11:28:23;14.50;21.50
1413;DHT22;701;52.526;13.408;2023-03-21T11:30:55;14.50;21.40
1413;DHT22;701;52.526;13.408;2023-03-21T11:33:25;14.60;21.50
1413;DHT22;701;52.526;13.408;2023-03-21T11:36:35;14.60;21.40
1413;DHT22;701;52.526;13.408;2023-03-21T11:39:23;14.70;20.90
1413;DHT22;701;52.526;13.408;2023-03-21T11:41:52;14.70;21.00
1413;DHT22;701;52.526;13.408;2023-03-21T11:44:42;14.70;21.00
1413;DHT22;701;52.526;13.408;2023-03-21T11:47:09;14.80;21.40
1413;DHT22;701;52.526;13.408;2023-03-21T11:49:36;14.80;20.90
1413;DHT22;701;52.526;13.408;2023-03-21T11:52:26;14.90;20.50
1413;DHT22;701;52.526;13.408;2023-03-21T12:03:47;15.10;20.30
1413;DHT22;701;52.526;13.408;2023-03-21T12:06:27;15.20;20.30
1413;DHT22;701;52.526;13.408;2023-03-21T12:14:50;15.50;19.40
1413;DHT22;701;52.526;13.408;2023-03-21T12:25:04;16.30;17.90
1413;DHT22;701;52.526;13.408;2023-03-21T12:27:46;16.40;17.50
1413;DHT22;701;52.526;13.408;2023-03-21T12:30:32;16.40;17.20
1413;DHT22;701;52.526;13.408;2023-03-21T12:33:24;16.30;17.40
1413;DHT22;701;52.526;13.408;2023-03-21T12:36:16;16.30;17.40
1413;DHT22;701;52.526;13.408;2023-03-21T12:42:32;16.30;17.40
1413;DHT22;701;52.526;13.408;2023-03-21T12:44:40;16.30;17.20
1413;DHT22;701;52.526;13.408;2023-03-21T12:47:26;16.40;17.10
1413;DHT22;701;52.526;13.408;2023-03-21T12:49:59;16.40;16.70
1413;DHT22;701;52.526;13.408;2023-03-21T12:52:32;16.40;17.20
1413;DHT22;701;52.526;13.408;2023-03-21T13:00:48;16.30;17.40
1413;DHT22;701;52.526;13.408;2023-03-21T13:03:21;16.30;17.40
1413;DHT22;701;52.526;13.408;2023-03-21T13:08:32;16.20;17.30
1413;DHT22;701;52.526;13.408;2023-03-21T13:11:00;16.20;17.30
1413;DHT22;701;52.526;13.408;2023-03-21T13:14:29;16.10;17.50
1413;DHT22;701;52.526;13.408;2023-03-21T13:19:30;16.00;17.70
1413;DHT22;701;52.526;13.408;2023-03-21T13:22:36;16.00;17.90
1413;DHT22;701;52.526;13.408;2023-03-21T13:27:42;15.80;18.10
1413;DHT22;701;52.526;13.408;2023-03-21T13:30:24;15.70;18.30
1413;DHT22;701;52.526;13.408;2023-03-21T13:33:10;15.60;18.40
1413;DHT22;701;52.526;13.408;2023-03-21T13:35:39;15.60;18.50
1413;DHT22;701;52.526;13.408;2023-03-21T13:38:23;15.50;18.70
1413;DHT22;701;52.526;13.408;2023-03-21T13:41:04;15.50;18.80
1413;DHT22;701;52.526;13.408;2023-03-21T13:59:42;15.00;20.00
1413;DHT22;701;52.526;13.408;2023-03-21T14:04:43;15.10;19.90
1413;DHT22;701;52.526;13.408;2023-03-21T14:07:28;15.20;19.80
1413;DHT22;701;52.526;13.408;2023-03-21T14:09:59;15.30;19.70
1413;DHT22;701;52.526;13.408;2023-03-21T14:12:29;15.30;19.60
1413;DHT22;701;52.526;13.408;2023-03-21T14:15:36;15.40;19.70
1413;DHT22;701;52.526;13.408;2023-03-21T14:18:05;15.40;20.40
1413;DHT22;701;52.526;13.408;2023-03-21T14:20:36;15.50;20.50
1413;DHT22;701;52.526;13.408;2023-03-21T14:23:07;15.40;21.00
1413;DHT22;701;52.526;13.408;2023-03-21T14:25:37;15.40;20.90
1413;DHT22;701;52.526;13.408;2023-03-21T14:28:11;15.40;21.10
1413;DHT22;701;52.526;13.408;2023-03-21T14:30:40;15.30;21.40
1413;DHT22;701;52.526;13.408;2023-03-21T14:33:26;15.30;21.50
1413;DHT22;701;52.526;13.408;2023-03-21T14:35:57;15.20;21.80
1413;DHT22;701;52.526;13.408;2023-03-21T14:38:25;15.20;21.70
1413;DHT22;701;52.526;13.408;2023-03-21T14:40:54;15.30;21.70
1413;DHT22;701;52.526;13.408;2023-03-21T14:43:21;15.40;21.50
1413;DHT22;701;52.526;13.408;2023-03-21T14:45:51;15.40;21.30
1413;DHT22;701;52.526;13.408;2023-03-21T14:48:17;15.50;21.10
1413;DHT22;701;52.526;13.408;2023-03-21T14:50:54;15.60;20.70
1413;DHT22;701;52.526;13.408;2023-03-21T14:53:27;15.60;20.60
1413;DHT22;701;52.526;13.408;2023-03-21T14:56:05;15.80;20.80
1413;DHT22;701;52.526;13.408;2023-03-21T14:58:32;15.90;20.50
1413;DHT22;701;52.526;13.408;2023-03-21T15:01:02;15.90;20.20
1413;DHT22;701;52.526;13.408;2023-03-21T15:03:29;16.00;19.90
1413;DHT22;701;52.526;13.408;2023-03-21T15:05:57;16.00;19.80
1413;DHT22;701;52.526;13.408;2023-03-21T15:08:25;15.90;19.70
1413;DHT22;701;52.526;13.408;2023-03-21T15:10:58;16.00;19.70
1413;DHT22;701;52.526;13.408;2023-03-21T15:13:30;16.00;19.60
1413;DHT22;701;52.526;13.408;2023-03-21T15:15:58;15.90;19.60
1413;DHT22;701;52.526;13.408;2023-03-21T15:18:32;15.90;19.60
1413;DHT22;701;52.526;13.408;2023-03-21T15:21:06;15.80;19.60
1413;DHT22;701;52.526;13.408;2023-03-21T15:23:39;15.80;19.80
1413;DHT22;701;52.526;13.408;2023-03-21T15:26:06;15.70;19.90
1413;DHT22;701;52.526;13.408;2023-03-21T15:28:34;15.60;20.20
1413;DHT22;701;52.526;13.408;2023-03-21T15:31:00;15.50;20.50
1413;DHT22;701;52.526;13.408;2023-03-21T15:33:26;15.50;20.60
1413;DHT22;701;52.526;13.408;2023-03-21T15:35:55;15.40;20.50
1413;DHT22;701;52.526;13.408;2023-03-21T15:40:48;15.30;20.50
1413;DHT22;701;52.526;13.408;2023-03-21T15:43:17;15.30;20.80
1413;DHT22;701;52.526;13.408;2023-03-21T15:45:53;15.30;20.90
1413;DHT22;701;52.526;13.408;2023-03-21T15:48:33;15.20;21.10
1413;DHT22;701;52.526;13.408;2023-03-21T15:51:03;15.10;21.30
1413;DHT22;701;52.526;13.408;2023-03-21T15:53:34;15.00;22.10
1413;DHT22;701;52.526;13.408;2023-03-21T15:56:03;15.00;21.60
1413;DHT22;701;52.526;13.408;2023-03-21T15:58:36;14.90;22.20
1413;DHT22;701;52.526;13.408;2023-03-21T16:01:12;14.90;21.90
1413;DHT22;701;52.526;13.408;2023-03-21T16:03:42;14.80;21.90
1413;DHT22;701;52.526;13.408;2023-03-21T16:08:43;14.70;22.00
1413;DHT22;701;52.526;13.408;2023-03-21T16:11:24;14.70;22.30
1413;DHT22;701;52.526;13.408;2023-03-21T16:13:51;14.60;22.70
1413;DHT22;701;52.526;13.408;2023-03-21T16:16:23;14.60;22.70
1413;DHT22;701;52.526;13.408;2023-03-21T16:18:50;14.50;23.40
1413;DHT22;701;52.526;13.408;2023-03-21T16:21:19;14.50;22.80
1413;DHT22;701;52.526;13.408;2023-03-21T16:23:46;14.50;22.90
1413;DHT22;701;52.526;13.408;2023-03-21T16:26:22;14.50;23.10
1413;DHT22;701;52.526;13.408;2023-03-21T16:28:48;14.40;23.20
1413;DHT22;701;52.526;13.408;2023-03-21T16:31:17;14.40;23.30
1413;DHT22;701;52.526;13.408;2023-03-21T16:33:44;14.40;23.40
1413;DHT22;701;52.526;13.408;2023-03-21T16:36:16;14.30;23.30
1413;DHT22;701;52.526;13.408;2023-03-21T16:38:45;14.30;23.30
1413;DHT22;701;52.526;13.408;2023-03-21T16:41:15;14.30;23.30
1413;DHT22;701;52.526;13.408;2023-03-21T16:43:42;14.30;23.40
1413;DHT22;701;52.526;13.408;2023-03-21T16:46:16;14.20;23.30
1413;DHT22;701;52.526;13.408;2023-03-21T16:48:44;14.30;23.70
1413;DHT22;701;52.526;13.408;2023-03-21T16:51:34;14.20;23.50
1413;DHT22;701;52.526;13.408;2023-03-21T16:54:01;14.20;23.70
1413;DHT22;701;52.526;13.408;2023-03-21T16:56:41;14.20;23.70
1413;DHT22;701;52.526;13.408;2023-03-21T16:59:11;14.20;23.80
1413;DHT22;701;52.526;13.408;2023-03-21T17:01:37;14.20;23.90
1413;DHT22;701;52.526;13.408;2023-03-21T17:04:04;14.20;24.00
1413;DHT22;701;52.526;13.408;2023-03-21T17:06:31;14.10;24.00
1413;DHT22;701;52.526;13.408;2023-03-21T17:08:57;14.10;24.00
1413;DHT22;701;52.526;13.408;2023-03-21T17:11:26;14.10;24.40
1413;DHT22;701;52.526;13.408;2023-03-21T17:13:55;14.00;24.50
1413;DHT22;701;52.526;13.408;2023-03-21T17:16:23;14.00;24.60
1413;DHT22;701;52.526;13.408;2023-03-21T17:18:50;13.90;24.80
1413;DHT22;701;52.526;13.408;2023-03-21T17:21:24;13.90;24.80
1413;DHT22;701;52.526;13.408;2023-03-21T17:23:50;13.90;25.50
1413;DHT22;701;52.526;13.408;2023-03-21T17:28:47;13.90;25.20
1413;DHT22;701;52.526;13.408;2023-03-21T17:31:18;13.90;25.20
1413;DHT22;701;52.526;13.408;2023-03-21T17:33:44;13.90;25.20
1413;DHT22;701;52.526;13.408;2023-03-21T17:36:25;13.90;25.20
1413;DHT22;701;52.526;13.408;2023-03-21T17:38:52;13.90;25.50
1413;DHT22;701;52.526;13.408;2023-03-21T17:41:19;13.80;25.40
1413;DHT22;701;52.526;13.408;2023-03-21T17:43:45;13.80;25.50
1413;DHT22;701;52.526;13.408;2023-03-21T17:46:16;13.80;25.50
1413;DHT22;701;52.526;13.408;2023-03-21T17:48:43;13.80;25.50
1413;DHT22;701;52.526;13.408;2023-03-21T17:51:10;13.80;25.50
1413;DHT22;701;52.526;13.408;2023-03-21T17:53:47;13.80;25.70
1413;DHT22;701;52.526;13.408;2023-03-21T17:56:26;13.80;25.70
1413;DHT22;701;52.526;13.408;2023-03-21T17:58:58;13.80;25.80
1413;DHT22;701;52.526;13.408;2023-03-21T18:01:24;13.70;26.00
1413;DHT22;701;52.526;13.408;2023-03-21T18:03:51;13.70;25.90
1413;DHT22;701;52.526;13.408;2023-03-21T18:06:21;13.70;25.90
1413;DHT22;701;52.526;13.408;2023-03-21T18:08:48;13.70;26.20
1413;DHT22;701;52.526;13.408;2023-03-21T18:11:15;13.70;26.30
1413;DHT22;701;52.526;13.408;2023-03-21T18:13:42;13.70;26.30
1413;DHT22;701;52.526;13.408;2023-03-21T18:16:14;13.70;26.20
1413;DHT22;701;52.526;13.408;2023-03-21T18:18:40;13.70;26.50